Time;durP1;ratioP1;P1;durP2;ratioP2;P2;SDS_P1;SDS_P2;PMS_P1;PMS_P2;Temp;Humidity;BMP_temperature;BMP_pressure;BME280_temperature;BME280_humidity;BME280_pressure;Samples;Min_cycle;Max_cycle;Signal;HPM_P1;HPM_P2
2022/09/10 00:01:20;;;;;;;10.68;6.43;;;;;;;14.38;95.24;100827.38;5047591;28;20473;-83
2022/09/10 00:03:47;;;;;;;10.45;6.28;;;;;;;14.42;95.25;100838.34;5048365;28;20029;-83
2022/09/10 00:06:13;;;;;;;12.35;6.95;;;;;;;14.47;95.00;100820.50;5047310;28;20024;-82
2022/09/10 00:08:39;;;;;;;12.52;7.07;;;;;;;14.36;94.77;100813.66;5048206;28;20035;-83
2022/09/10 00:11:08;;;;;;;12.35;7.43;;;;;;;14.41;94.90;100823.66;5047925;28;20028;-82
2022/09/10 00:13:36;;;;;;;12.07;7.97;;;;;;;14.46;94.65;100824.03;5048814;28;20039;-82
2022/09/10 00:16:03;;;;;;;13.25;8.77;;;;;;;14.39;94.67;100813.34;5047235;28;20020;-83
2022/09/10 00:18:29;;;;;;;13.73;8.37;;;;;;;14.45;95.05;100822.38;5047063;28;20065;-83
2022/09/10 00:20:57;;;;;;;14.32;8.40;;;;;;;14.48;94.43;100822.13;5047807;28;20283;-83
2022/09/10 00:23:26;;;;;;;12.93;8.80;;;;;;;14.41;95.27;100810.63;5048297;28;20311;-84
2022/09/10 00:25:52;;;;;;;;;;;;;;;14.59;94.51;100819.28;5048981;28;20128;-83
2022/09/10 00:28:19;;;;;;;14.05;9.80;;;;;;;14.44;94.51;100812.91;5038828;28;19917;-83
2022/09/10 00:30:46;;;;;;;13.68;9.43;;;;;;;14.46;94.81;100816.22;5039905;28;20048;-84
2022/09/10 00:33:14;;;;;;;12.68;9.35;;;;;;;14.41;95.32;100813.22;5048167;28;20063;-83
2022/09/10 00:35:45;;;;;;;14.38;9.60;;;;;;;14.48;94.87;100819.50;5048648;28;20029;-83
2022/09/10 00:38:12;;;;;;;14.43;10.07;;;;;;;14.46;94.65;100819.63;5046195;28;20029;-83
2022/09/10 00:40:39;;;;;;;13.27;9.77;;;;;;;14.43;94.95;100822.53;5047714;28;20029;-84
2022/09/10 00:43:16;;;;;;;14.65;10.15;;;;;;;14.42;95.23;100820.06;5042878;28;20025;-84
2022/09/10 00:45:44;;;;;;;14.95;11.00;;;;;;;14.41;95.08;100818.44;5032138;28;20037;-83
2022/09/10 00:48:21;;;;;;;13.77;10.65;;;;;;;14.40;95.38;100814.19;5043588;28;20052;-83
2022/09/10 00:50:50;;;;;;;15.77;10.63;;;;;;;14.41;95.17;100821.06;5038450;28;20028;-82
2022/09/10 00:53:22;;;;;;;13.85;11.18;;;;;;;14.44;95.22;100815.53;5040588;28;20033;-83
2022/09/10 00:55:52;;;;;;;16.58;12.35;;;;;;;14.45;95.51;100822.38;5047295;28;20124;-84
2022/09/10 00:58:19;;;;;;;16.10;12.32;;;;;;;14.45;95.66;100817.16;5038091;28;20040;-82
2022/09/10 01:00:45;;;;;;;16.55;12.75;;;;;;;14.48;95.32;100814.28;5034774;28;20327;-83
2022/09/10 01:03:14;;;;;;;16.25;12.93;;;;;;;14.35;95.94;100818.06;5039266;28;20102;-83
2022/09/10 01:05:43;;;;;;;15.02;13.18;;;;;;;14.37;95.62;100804.06;5029733;28;20025;-83
2022/09/10 01:08:14;;;;;;;15.52;12.80;;;;;;;14.39;96.20;100808.13;5035805;28;20029;-83
2022/09/10 01:11:05;;;;;;;16.80;12.38;;;;;;;14.35;95.94;100807.63;5035102;28;20028;-83
2022/09/10 01:13:43;;;;;;;18.33;14.13;;;;;;;14.43;95.52;100819.91;5042747;28;20025;-83
2022/09/10 01:16:19;;;;;;;19.40;15.38;;;;;;;14.32;96.42;100804.50;5040793;28;20490;-85
2022/09/10 01:19:06;;;;;;;16.38;14.63;;;;;;;14.42;95.82;100807.03;5039087;28;20039;-84
2022/09/10 01:21:45;;;;;;;16.58;14.27;;;;;;;14.39;96.15;100813.34;5037010;28;20029;-84
2022/09/10 01:24:35;;;;;;;16.48;14.45;;;;;;;14.40;96.11;100814.19;5034168;28;20025;-84
2022/09/10 01:27:38;;;;;;;17.25;14.70;;;;;;;14.43;96.62;100819.09;5043571;28;20128;-84
2022/09/10 01:30:06;;;;;;;18.90;16.15;;;;;;;14.43;96.23;100824.31;5038185;28;20048;-85
2022/09/10 01:32:39;;;;;;;19.70;15.82;;;;;;;14.30;97.23;100814.28;5045918;28;20338;-83
2022/09/10 01:35:39;;;;;;;17.40;15.57;;;;;;;14.41;96.92;100818.44;5032042;28;20061;-83
2022/09/10 01:38:08;;;;;;;17.17;15.32;;;;;;;14.44;96.62;100825.97;5025969;28;20025;-85
2022/09/10 01:40:36;;;;;;;22.42;16.67;;;;;;;14.38;96.75;100821.34;5033147;28;20040;-83
2022/09/10 01:43:07;;;;;;;19.30;16.48;;;;;;;14.41;96.93;100821.88;5041834;28;20218;-84
2022/09/10 01:45:57;;;;;;;21.55;16.40;;;;;;;14.40;97.31;100814.19;5045681;28;20499;-84
2022/09/10 01:49:00;;;;;;;19.00;15.88;;;;;;;14.40;97.68;100825.47;5035949;28;20074;-85
2022/09/10 01:51:51;;;;;;;18.27;15.77;;;;;;;14.37;97.94;100830.16;5036541;28;20033;-84
2022/09/10 01:54:29;;;;;;;20.45;15.52;;;;;;;14.41;98.30;100821.06;5029474;28;20026;-83
2022/09/10 01:57:02;;;;;;;21.25;16.17;;;;;;;14.44;97.78;100823.34;5028388;28;20037;-83
2022/09/10 01:59:37;;;;;;;20.58;15.70;;;;;;;14.43;97.91;100824.31;5042817;28;20021;-83
2022/09/10 02:02:13;;;;;;;20.13;16.83;;;;;;;14.39;98.50;100822.97;5031303;28;20044;-83
2022/09/10 02:04:41;;;;;;;18.38;16.40;;;;;;;14.41;98.49;100821.06;5038381;28;20044;-82
2022/09/10 02:07:08;;;;;;;17.95;16.13;;;;;;;14.41;98.53;100805.41;5028307;28;20430;-84
2022/09/10 02:09:34;;;;;;;19.05;15.88;;;;;;;14.44;98.51;100810.31;5032663;28;20031;-83
2022/09/10 02:12:00;;;;;;;18.92;17.00;;;;;;;14.44;98.67;100807.69;5046632;28;20380;-83
2022/09/10 02:14:26;;;;;;;19.80;16.92;;;;;;;14.43;98.77;100811.28;5042505;28;20342;-84
2022/09/10 02:16:57;;;;;;;19.35;17.50;;;;;;;14.44;98.80;100815.53;5038569;28;20100;-83
2022/09/10 02:19:25;;;;;;;18.33;16.58;;;;;;;14.41;99.04;100811.44;5041373;28;20049;-82
2022/09/10 02:21:52;;;;;;;19.63;17.38;;;;;;;14.37;99.57;100814.50;5041042;28;20021;-83
2022/09/10 02:24:18;;;;;;;18.73;16.77;;;;;;;14.35;99.21;100799.81;5036757;28;20556;-83
2022/09/10 02:26:45;;;;;;;18.10;16.23;;;;;;;14.35;99.35;100802.41;5038008;28;20073;-83
2022/09/10 02:29:13;;;;;;;19.13;17.20;;;;;;;14.38;99.35;100800.47;5046252;28;20033;-83
2022/09/10 02:31:39;;;;;;;18.85;16.95;;;;;;;14.39;99.46;100807.31;5046097;28;20120;-82
2022/09/10 02:34:05;;;;;;;18.38;16.50;;;;;;;14.37;99.37;100796.22;5046821;28;20116;-83
2022/09/10 02:36:31;;;;;;;19.00;17.00;;;;;;;14.38;99.77;100805.69;5045844;28;20516;-84
2022/09/10 02:39:01;;;;;;;19.15;17.25;;;;;;;14.31;99.91;100790.63;5044829;28;20025;-84
2022/09/10 02:41:27;;;;;;;19.35;17.27;;;;;;;14.32;99.80;100796.66;5036653;28;20033;-84
2022/09/10 02:43:52;;;;;;;18.90;17.00;;;;;;;14.35;99.90;100801.59;5046143;28;20020;-84
2022/09/10 02:46:18;;;;;;;19.27;17.38;;;;;;;14.40;99.96;100803.75;5043525;28;20481;-83
2022/09/10 02:48:43;;;;;;;20.33;18.17;;;;;;;14.41;99.79;100810.63;5045089;28;20109;-84
2022/09/10 02:51:09;;;;;;;21.45;19.20;;;;;;;14.38;100.00;100808.28;5044873;28;20024;-84
2022/09/10 02:53:34;;;;;;;20.48;18.25;;;;;;;14.43;100.00;100811.28;5042723;28;20068;-83
2022/09/10 02:56:01;;;;;;;20.85;18.85;;;;;;;14.44;99.99;100805.09;5046099;28;20363;-85
2022/09/10 02:58:30;;;;;;;21.02;19.02;;;;;;;14.39;100.00;100800.31;5046293;28;20112;-84
2022/09/10 03:01:05;;;;;;;20.67;18.48;;;;;;;14.43;100.00;100803.44;5034348;28;20067;-84
2022/09/10 03:03:47;;;;;;;20.38;18.48;;;;;;;14.39;100.00;100802.91;5047201;28;20031;-84
2022/09/10 03:06:16;;;;;;;20.15;18.00;;;;;;;14.43;100.00;100813.88;5049133;28;20032;-84
2022/09/10 03:08:47;;;;;;;;;;;;;;;14.53;99.64;100809.44;5049551;28;20032;-84
2022/09/10 03:11:15;;;;;;;20.70;18.58;;;;;;;14.39;100.00;100800.31;5050107;28;19916;-83
2022/09/10 03:13:41;;;;;;;21.38;19.33;;;;;;;14.28;100.00;100772.69;5039761;28;20052;-84
2022/09/10 03:16:08;;;;;;;21.38;19.48;;;;;;;14.37;100.00;100783.19;5048479;28;20043;-83
2022/09/10 03:21:23;;;;;;;21.60;19.33;;;;;;;14.38;100.00;100795.25;5022533;28;20037;-81
2022/09/10 03:23:51;;;;;;;21.00;19.00;;;;;;;14.49;100.00;100797.66;5033958;28;20024;-84
2022/09/10 03:26:18;;;;;;;21.75;19.70;;;;;;;14.49;100.00;100797.66;5035559;28;20064;-84
2022/09/10 03:28:44;;;;;;;20.27;18.25;;;;;;;14.48;100.00;100798.63;5040945;28;20035;-83
2022/09/10 03:31:10;;;;;;;22.27;19.90;;;;;;;14.49;100.00;100797.66;5041029;28;20387;-83
2022/09/10 03:33:39;;;;;;;22.33;20.13;;;;;;;14.47;100.00;100797.00;5042070;28;20034;-83
2022/09/10 03:36:06;;;;;;;22.60;20.50;;;;;;;14.49;100.00;100792.44;5043588;28;20094;-83
2022/09/10 03:38:31;;;;;;;23.20;20.88;;;;;;;14.52;100.00;100802.59;5048871;28;20032;-84
2022/09/10 03:40:56;;;;;;;23.23;20.92;;;;;;;14.51;100.00;100795.72;5048352;28;20055;-83
2022/09/10 03:43:22;;;;;;;23.75;21.42;;;;;;;14.47;100.00;100784.75;5048629;28;20036;-84
2022/09/10 03:45:49;;;;;;;21.77;19.63;;;;;;;14.51;100.00;100790.50;5048339;28;20468;-83
2022/09/10 03:48:19;;;;;;;23.20;21.10;;;;;;;14.50;100.00;100783.63;5048561;28;20039;-83
2022/09/10 03:50:45;;;;;;;22.88;20.67;;;;;;;14.52;100.00;100792.16;5048464;28;20013;-83
2022/09/10 03:53:12;;;;;;;22.90;20.80;;;;;;;14.48;100.00;100785.59;5048913;28;20036;-83
2022/09/10 03:55:37;;;;;;;21.95;19.92;;;;;;;14.50;100.00;100783.63;5046643;28;20055;-83
2022/09/10 03:58:04;;;;;;;23.10;21.00;;;;;;;14.51;100.00;100786.13;5048497;28;20377;-83
2022/09/10 04:00:30;;;;;;;23.60;21.30;;;;;;;14.52;100.00;100776.50;5048127;28;20553;-83
2022/09/10 04:02:57;;;;;;;22.92;20.92;;;;;;;14.50;100.00;100781.03;5047337;28;20120;-83
2022/09/10 04:05:24;;;;;;;22.50;20.35;;;;;;;14.53;100.00;100785.94;5047845;28;20028;-84
2022/09/10 04:07:50;;;;;;;23.40;21.20;;;;;;;14.51;100.00;100786.13;5047284;28;20021;-85
2022/09/10 04:10:16;;;;;;;22.75;20.77;;;;;;;14.53;100.00;100778.13;5038344;28;20018;-82
2022/09/10 04:12:41;;;;;;;23.38;21.17;;;;;;;14.55;100.00;100791.81;5039544;28;20036;-82
2022/09/10 04:15:07;;;;;;;22.83;20.67;;;;;;;14.48;100.00;100780.38;5042307;28;20095;-85
2022/09/10 04:17:32;;;;;;;22.73;20.63;;;;;;;14.53;100.00;100780.72;5043522;28;20060;-83
2022/09/10 04:19:58;;;;;;;21.95;19.88;;;;;;;14.55;100.00;100791.81;5037312;28;20040;-84
2022/09/10 04:22:23;;;;;;;21.85;20.05;;;;;;;14.58;100.00;100792.34;5047685;28;20551;-82
2022/09/10 04:24:49;;;;;;;21.98;20.08;;;;;;;14.54;100.00;100784.97;5046931;28;20124;-84
2022/09/10 04:27:15;;;;;;;23.45;21.23;;;;;;;14.60;100.00;100800.03;5045573;28;20049;-83
2022/09/10 04:29:41;;;;;;;21.85;19.77;;;;;;;14.56;100.00;100783.03;5041351;28;20028;-84
2022/09/10 04:32:08;;;;;;;21.92;19.90;;;;;;;14.57;100.00;100779.47;5044503;28;20029;-82
2022/09/10 04:34:33;;;;;;;22.15;20.25;;;;;;;14.56;100.00;100772.59;5036809;28;20846;-83
2022/09/10 04:36:58;;;;;;;22.13;20.23;;;;;;;14.62;100.00;100787.63;5038714;28;20029;-82
2022/09/10 04:39:24;;;;;;;22.65;20.55;;;;;;;14.56;100.00;100777.81;5033432;28;20075;-83
2022/09/10 04:41:49;;;;;;;23.80;21.63;;;;;;;14.64;100.00;100784.88;5028420;28;20037;-84
2022/09/10 04:44:18;;;;;;;21.00;19.15;;;;;;;14.58;100.00;100775.88;5041975;28;20032;-84
2022/09/10 04:46:46;;;;;;;21.50;19.50;;;;;;;14.61;100.00;100775.56;5038748;28;20036;-83
2022/09/10 04:49:12;;;;;;;23.25;21.10;;;;;;;14.60;100.00;100768.72;5044944;28;20020;-83
2022/09/10 04:51:37;;;;;;;23.15;20.95;;;;;;;14.62;100.00;100785.03;5047617;28;20029;-81
2022/09/10 04:54:03;;;;;;;23.27;21.08;;;;;;;14.65;100.00;100792.56;5033574;28;20032;-83
2022/09/10 04:56:29;;;;;;;24.95;22.55;;;;;;;14.60;100.00;100797.41;5047694;28;20448;-83
2022/09/10 04:58:55;;;;;;;23.88;21.65;;;;;;;14.63;100.00;100791.91;5045861;28;20500;-83
2022/09/10 05:01:20;;;;;;;23.58;21.38;;;;;;;14.65;100.00;100787.34;5038672;28;20072;-83
2022/09/10 05:03:46;;;;;;;23.42;21.33;;;;;;;14.62;100.00;100777.19;5047304;28;20071;-84
2022/09/10 05:06:11;;;;;;;22.77;20.77;;;;;;;14.65;100.00;100776.91;5047636;28;20024;-84
2022/09/10 05:08:36;;;;;;;22.92;20.73;;;;;;;14.59;100.00;100780.13;5037816;28;20025;-82
2022/09/10 05:11:02;;;;;;;22.95;20.95;;;;;;;14.59;100.00;100754.84;5047191;28;20480;-82
2022/09/10 05:13:29;;;;;;;23.35;21.40;;;;;;;14.62;100.00;100764.13;5036099;28;20408;-83
2022/09/10 05:15:56;;;;;;;23.63;21.38;;;;;;;14.60;100.00;100766.09;5043201;28;20033;-82
2022/09/10 05:18:22;;;;;;;23.40;21.20;;;;;;;14.59;100.00;100767.06;5045409;28;20124;-83
2022/09/10 05:20:48;;;;;;;24.23;22.08;;;;;;;14.55;100.00;100763.94;5036805;28;20116;-83
2022/09/10 05:23:13;;;;;;;24.15;21.85;;;;;;;14.57;100.00;100763.81;5041492;28;20120;-83
2022/09/10 05:25:38;;;;;;;24.08;21.70;;;;;;;14.60;100.00;100773.94;5044789;28;20057;-82
2022/09/10 05:28:04;;;;;;;23.73;21.55;;;;;;;14.60;100.00;100768.72;5037026;28;20064;-82
2022/09/10 05:30:31;;;;;;;24.88;22.58;;;;;;;14.56;100.00;100767.38;5041405;28;20032;-82
2022/09/10 05:32:57;;;;;;;25.88;23.38;;;;;;;14.59;100.00;100767.06;5036442;28;20115;-82
2022/09/10 05:35:23;;;;;;;25.73;23.25;;;;;;;14.53;100.00;100757.25;5032315;28;20033;-82
2022/09/10 05:37:48;;;;;;;25.88;23.42;;;;;;;14.59;100.00;100773.09;5025943;28;20357;-83
2022/09/10 05:40:13;;;;;;;24.88;22.73;;;;;;;14.59;100.00;100767.88;5040457;28;20483;-83
2022/09/10 05:42:39;;;;;;;24.98;22.67;;;;;;;14.61;100.00;100778.16;5044975;28;20383;-83
2022/09/10 05:45:05;;;;;;;25.85;23.25;;;;;;;14.61;100.00;100770.34;5028776;28;20030;-83
2022/09/10 05:47:30;;;;;;;24.58;22.50;;;;;;;14.61;100.00;100773.75;5039880;28;20031;-82
2022/09/10 05:49:55;;;;;;;23.98;21.67;;;;;;;14.46;100.00;100750.97;5046382;28;20040;-83
2022/09/10 05:52:23;;;;;;;25.45;23.05;;;;;;;14.58;100.00;100770.66;5033152;28;20067;-83
2022/09/10 05:54:48;;;;;;;26.35;23.98;;;;;;;14.64;100.00;100783.09;5030314;28;20033;-82
2022/09/10 05:57:13;;;;;;;24.58;22.27;;;;;;;14.62;100.00;100771.97;5044804;28;20609;-83
2022/09/10 05:59:39;;;;;;;26.90;24.50;;;;;;;14.65;100.00;100776.91;5044762;28;20369;-83
2022/09/10 06:02:04;;;;;;;26.80;24.27;;;;;;;14.64;100.00;100775.28;5044157;28;20025;-83
2022/09/10 06:04:29;;;;;;;25.80;23.38;;;;;;;14.65;100.00;100782.13;5036077;28;20095;-84
2022/09/10 06:06:55;;;;;;;27.02;24.52;;;;;;;14.63;100.00;100778.84;5043611;28;20021;-83
2022/09/10 06:09:20;;;;;;;28.23;25.52;;;;;;;14.65;100.00;100782.13;5035645;28;20033;-83
2022/09/10 06:11:48;;;;;;;28.20;25.70;;;;;;;14.69;100.00;100788.69;5045278;28;20029;-84
2022/09/10 06:14:14;;;;;;;27.92;25.40;;;;;;;14.68;100.00;100781.84;5043481;28;20029;-83
2022/09/10 06:16:40;;;;;;;26.10;23.67;;;;;;;14.67;100.00;100780.16;5046139;28;20514;-82
2022/09/10 06:19:07;;;;;;;28.45;25.85;;;;;;;14.68;100.00;100784.44;5042218;28;20023;-82
2022/09/10 06:21:32;;;;;;;28.45;25.95;;;;;;;14.71;100.00;100791.94;5037558;28;20458;-83
2022/09/10 06:23:57;;;;;;;29.10;26.48;;;;;;;14.73;100.00;100790.00;5028236;28;20072;-84
2022/09/10 06:26:23;;;;;;;28.95;26.05;;;;;;;14.75;100.00;100793.28;5027597;28;20065;-83
2022/09/10 06:28:52;;;;;;;30.02;27.20;;;;;;;14.67;100.00;100790.59;5035250;28;20128;-84
2022/09/10 06:31:18;;;;;;;30.00;27.48;;;;;;;14.76;100.00;100802.75;5030365;28;20037;-83
2022/09/10 06:33:45;;;;;;;29.83;26.90;;;;;;;14.71;100.00;100805.00;5034395;28;20037;-83
2022/09/10 06:36:11;;;;;;;29.80;27.10;;;;;;;14.79;100.00;100807.66;5040503;28;20025;-83
2022/09/10 06:38:37;;;;;;;30.02;27.23;;;;;;;14.82;100.00;100802.16;5049091;28;20495;-83
2022/09/10 06:41:05;;;;;;;29.15;26.55;;;;;;;14.86;100.00;100808.72;5049512;28;20052;-83
2022/09/10 06:43:32;;;;;;;;;;;;;;;14.97;100.00;100806.81;5030340;28;20868;-82
2022/09/10 06:45:57;;;;;;;29.02;26.45;;;;;;;14.90;100.00;100795.31;5033007;28;19913;-83
2022/09/10 06:48:27;;;;;;;29.73;27.20;;;;;;;14.91;100.00;100812.63;5032222;28;20376;-84
2022/09/10 06:51:00;;;;;;;28.77;26.27;;;;;;;14.95;100.00;100811.34;5046755;28;20021;-88
2022/09/10 06:53:28;;;;;;;31.02;28.48;;;;;;;14.99;100.00;100815.31;5044230;28;20608;-88
2022/09/10 06:55:54;;;;;;;29.80;27.23;;;;;;;15.00;100.00;100807.31;5036055;28;20032;-82
2022/09/10 06:58:22;;;;;;;30.00;27.58;;;;;;;15.04;100.00;100818.28;5028930;28;20068;-82
2022/09/10 07:00:48;;;;;;;29.17;26.77;;;;;;;15.04;100.00;100808.66;5047309;28;20029;-87
2022/09/10 07:03:15;;;;;;;29.80;27.23;;;;;;;15.02;100.00;100812.38;5040829;28;20049;-86
2022/09/10 07:05:41;;;;;;;27.80;25.50;;;;;;;15.05;100.00;100804.25;5035915;28;20044;-85
2022/09/10 07:08:07;;;;;;;26.48;24.27;;;;;;;15.10;100.00;100817.66;5040823;28;20044;-89
2022/09/10 07:10:32;;;;;;;26.63;24.48;;;;;;;15.07;100.00;100810.94;5031655;28;20048;-87
2022/09/10 07:12:59;;;;;;;27.90;25.58;;;;;;;15.04;100.00;100805.22;5036544;28;20021;-88
2022/09/10 07:15:26;;;;;;;25.77;23.63;;;;;;;15.05;100.00;100805.06;5039306;28;20063;-88
2022/09/10 07:17:52;;;;;;;27.80;25.50;;;;;;;15.02;100.00;100810.59;5030370;28;20036;-86
2022/09/10 07:20:18;;;;;;;27.88;25.63;;;;;;;15.06;100.00;100821.56;5028018;28;20075;-86
2022/09/10 07:22:43;;;;;;;27.35;25.15;;;;;;;15.00;100.00;100827.38;5040728;28;20025;-82
2022/09/10 07:25:08;;;;;;;28.50;26.10;;;;;;;14.99;100.00;100823.16;5044589;28;20069;-87
2022/09/10 07:27:34;;;;;;;28.77;26.38;;;;;;;15.04;100.00;100828.72;5028524;28;20171;-87
2022/09/10 07:29:59;;;;;;;28.90;26.50;;;;;;;15.11;100.00;100829.75;5031818;28;20390;-86
2022/09/10 07:32:25;;;;;;;28.95;26.65;;;;;;;15.10;100.00;100830.72;5035302;28;20029;-86
2022/09/10 07:34:51;;;;;;;29.35;27.02;;;;;;;15.12;100.00;100839.22;5026013;28;20057;-87
2022/09/10 07:37:16;;;;;;;29.63;27.25;;;;;;;15.11;100.00;100829.75;5027713;28;20036;-86
2022/09/10 07:39:42;;;;;;;29.60;27.10;;;;;;;15.17;100.00;100839.56;5030471;28;20516;-84
2022/09/10 07:42:08;;;;;;;30.73;28.25;;;;;;;15.19;100.00;100832.41;5031705;28;20095;-85
2022/09/10 07:44:33;;;;;;;31.13;28.52;;;;;;;15.18;100.00;100830.75;5032249;28;20318;-87
2022/09/10 07:47:00;;;;;;;28.75;26.48;;;;;;;15.22;100.00;100841.72;5029149;28;20033;-87
2022/09/10 07:49:26;;;;;;;29.77;27.48;;;;;;;15.22;100.00;100845.16;5028917;28;20818;-87
2022/09/10 07:51:53;;;;;;;29.10;26.80;;;;;;;15.22;100.00;100839.94;5032230;28;20034;-88
2022/09/10 07:54:19;;;;;;;29.98;27.60;;;;;;;15.19;100.00;100842.84;5031381;28;20040;-87
2022/09/10 07:56:45;;;;;;;30.20;27.80;;;;;;;15.19;100.00;100848.06;5030140;28;20033;-86
2022/09/10 07:59:10;;;;;;;30.05;27.80;;;;;;;15.18;100.00;100846.44;5032531;28;20067;-81
2022/09/10 08:01:36;;;;;;;30.05;27.70;;;;;;;15.21;100.00;100846.16;5040608;28;20036;-86
2022/09/10 08:04:02;;;;;;;29.85;27.65;;;;;;;15.21;100.00;100846.16;5043708;28;20028;-87
2022/09/10 08:06:28;;;;;;;29.88;27.52;;;;;;;15.20;100.00;100839.28;5047182;28;20033;-87
2022/09/10 08:08:53;;;;;;;29.33;27.02;;;;;;;15.31;100.00;100846.00;5030851;28;20016;-87
2022/09/10 08:11:20;;;;;;;30.75;28.45;;;;;;;15.33;100.00;100850.13;5030914;28;20457;-87
2022/09/10 08:13:48;;;;;;;32.30;29.80;;;;;;;15.38;100.00;100853.09;5036944;28;20033;-83
2022/09/10 08:16:22;;;;;;;31.45;28.95;;;;;;;15.37;100.00;100856.69;5029670;28;20022;-84
2022/09/10 08:18:48;;;;;;;31.70;29.23;;;;;;;15.49;100.00;100864.25;5028213;28;20082;-86
2022/09/10 08:21:14;;;;;;;31.95;29.35;;;;;;;15.53;100.00;100861.16;5047401;28;20029;-82
2022/09/10 08:23:40;;;;;;;31.23;28.80;;;;;;;15.55;100.00;100866.25;5042340;28;20031;-87
2022/09/10 08:26:07;;;;;;;31.67;29.27;;;;;;;15.59;100.00;100872.78;5026095;28;20049;-83
2022/09/10 08:28:33;;;;;;;32.00;29.48;;;;;;;15.62;100.00;100864.63;5028718;28;20018;-88
2022/09/10 08:31:07;;;;;;;32.47;29.88;;;;;;;15.73;100.00;100882.69;5034553;28;20033;-87
2022/09/10 08:33:34;;;;;;;34.38;31.63;;;;;;;15.86;100.00;100877.00;5047589;28;20068;-88
2022/09/10 08:36:00;;;;;;;35.00;32.10;;;;;;;15.91;100.00;100874.75;5033554;28;20112;-87
2022/09/10 08:38:31;;;;;;;32.78;30.17;;;;;;;16.01;100.00;100879.84;5039454;28;20037;-84
2022/09/10 08:40:58;;;;;;;31.98;29.45;;;;;;;16.06;100.00;100882.81;5034009;28;20503;-87
2022/09/10 08:43:34;;;;;;;31.83;29.15;;;;;;;16.08;100.00;100886.09;5046128;28;20422;-87
2022/09/10 08:46:04;;;;;;;30.08;27.48;;;;;;;16.13;100.00;100899.50;5046094;28;20021;-87
2022/09/10 08:48:34;;;;;;;31.77;29.15;;;;;;;16.18;100.00;100892.81;5043763;28;20025;-87
2022/09/10 08:51:08;;;;;;;29.58;27.05;;;;;;;16.30;100.00;100901.19;5045774;28;20079;-87
2022/09/10 08:53:40;;;;;;;26.25;24.15;;;;;;;16.26;100.00;100896.44;5027240;28;20141;-87
2022/09/10 08:56:14;;;;;;;23.55;21.55;;;;;;;16.25;100.00;100893.00;5035341;28;20425;-84
2022/09/10 08:58:44;;;;;;;22.40;20.33;;;;;;;16.30;100.00;100901.19;5034802;28;20119;-87
2022/09/10 09:01:17;;;;;;;20.92;18.90;;;;;;;16.23;100.00;100891.50;5043885;28;20155;-86
2022/09/10 09:03:45;;;;;;;21.70;19.63;;;;;;;16.27;100.00;100900.69;5041338;28;20495;-88
2022/09/10 09:06:20;;;;;;;21.17;19.38;;;;;;;16.33;100.00;100900.84;5042231;28;20488;-88
2022/09/10 09:08:48;;;;;;;20.02;18.27;;;;;;;16.32;100.00;100898.41;5035063;28;20036;-87
2022/09/10 09:11:22;;;;;;;19.95;18.23;;;;;;;16.31;100.00;100900.19;5043590;28;20025;-85
2022/09/10 09:14:18;;;;;;;20.42;18.52;;;;;;;16.39;100.00;100918.53;5033192;28;20029;-88
2022/09/10 09:17:09;;;;;;;19.88;18.05;;;;;;;16.39;100.00;100915.91;5039680;28;20037;-88
2022/09/10 09:19:44;;;;;;;18.15;16.48;;;;;;;16.53;100.00;100911.84;5042984;28;20021;-86
2022/09/10 09:22:28;;;;;;;18.20;16.48;;;;;;;16.61;100.00;100900.56;5040981;28;20030;-87
2022/09/10 09:24:56;;;;;;;16.00;14.48;;;;;;;16.58;100.00;100893.06;5033009;28;20339;-80
2022/09/10 09:27:26;;;;;;;15.10;12.73;;;;;;;16.71;100.00;100893.41;5031633;28;20606;-85
2022/09/10 09:29:58;;;;;;;10.98;9.88;;;;;;;16.65;100.00;100883.56;5043287;28;20029;-87
2022/09/10 09:32:25;;;;;;;11.68;8.80;;;;;;;16.76;100.00;100883.25;5034877;28;20116;-86
2022/09/10 09:34:59;;;;;;;10.70;8.32;;;;;;;16.82;100.00;100906.19;5042905;28;20029;-85
2022/09/10 09:37:30;;;;;;;8.75;7.55;;;;;;;16.81;100.00;100904.56;5047201;28;20033;-86
2022/09/10 09:40:05;;;;;;;10.30;9.10;;;;;;;16.81;100.00;100904.56;5034399;28;20051;-85
2022/09/10 09:42:52;;;;;;;12.38;9.43;;;;;;;16.80;100.00;100915.97;5043042;28;20059;-85
2022/09/10 09:45:44;;;;;;;12.38;9.85;;;;;;;16.75;100.00;100905.22;5036271;28;20147;-86
2022/09/10 09:48:15;;;;;;;11.20;9.52;;;;;;;16.73;100.00;100918.44;5044113;28;20373;-86
2022/09/10 09:50:44;;;;;;;11.43;9.23;;;;;;;16.69;100.00;100916.31;5033162;28;20018;-87
2022/09/10 09:53:18;;;;;;;10.63;9.52;;;;;;;16.64;100.00;100918.59;5046560;28;20029;-83
2022/09/10 09:55:48;;;;;;;9.80;8.48;;;;;;;16.57;100.00;100907.09;5043061;28;20029;-85
2022/09/10 09:58:19;;;;;;;9.82;8.82;;;;;;;16.51;100.00;100913.81;5042792;28;20025;-85
2022/09/10 10:00:48;;;;;;;9.88;8.88;;;;;;;16.49;100.00;100914.97;5037300;28;20031;-84
2022/09/10 10:03:24;;;;;;;10.75;8.80;;;;;;;16.52;100.00;100919.88;5035757;28;20032;-82
2022/09/10 10:05:50;;;;;;;9.73;8.13;;;;;;;16.49;100.00;100914.97;5026672;28;20022;-84
2022/09/10 10:08:41;;;;;;;9.57;8.18;;;;;;;16.58;100.00;100919.25;5027654;28;20036;-84
2022/09/10 10:11:07;;;;;;;10.05;8.00;;;;;;;16.59;100.00;100916.44;5024985;28;20056;-84
2022/09/10 10:13:41;;;;;;;10.75;8.35;;;;;;;16.61;100.00;100924.13;5032358;28;20036;-84
2022/09/10 10:16:34;;;;;;;11.63;8.48;;;;;;;16.60;100.00;100918.09;5034435;28;20443;-84
2022/09/10 10:19:00;;;;;;;9.90;7.07;;;;;;;16.64;100.00;100934.31;5029417;28;20029;-83
2022/09/10 10:21:31;;;;;;;9.60;7.50;;;;;;;16.66;100.00;100929.72;5035756;28;20025;-84
2022/09/10 10:23:57;;;;;;;9.75;7.93;;;;;;;16.58;100.00;100937.56;5036041;28;20037;-84
2022/09/10 10:26:22;;;;;;;10.88;8.50;;;;;;;16.60;100.00;100943.44;5032607;28;20045;-85
2022/09/10 10:28:52;;;;;;;11.27;9.07;;;;;;;16.59;100.00;100952.28;5031116;28;20462;-85
2022/09/10 10:31:18;;;;;;;9.93;8.93;;;;;;;16.55;100.00;100945.72;5029440;28;20024;-85
2022/09/10 10:34:09;;;;;;;11.98;10.30;;;;;;;16.60;100.00;100959.16;5040912;28;20033;-85
2022/09/10 10:36:39;;;;;;;11.30;10.10;;;;;;;16.55;100.00;100961.44;5045049;28;20078;-84
2022/09/10 10:39:20;;;;;;;12.00;10.77;;;;;;;16.58;100.00;100950.66;5045289;28;20544;-84
2022/09/10 10:41:54;;;;;;;10.55;9.45;;;;;;;16.58;100.00;100946.25;5047009;28;20405;-84
2022/09/10 10:44:30;;;;;;;9.23;8.15;;;;;;;16.62;100.00;100959.81;5047704;28;20064;-84
2022/09/10 10:47:06;;;;;;;8.77;7.07;;;;;;;16.60;100.00;100956.53;5045521;28;20528;-84
2022/09/10 10:50:06;;;;;;;9.20;6.05;;;;;;;16.64;100.00;100960.50;5031788;28;20069;-84
2022/09/10 10:52:40;;;;;;;8.23;5.60;;;;;;;16.68;100.00;100967.03;5054474;28;20029;-84
2022/09/10 10:55:05;;;;;;;8.60;5.28;;;;;;;16.64;100.00;100966.53;5039379;28;20028;-84
2022/09/10 10:57:37;;;;;;;7.35;5.25;;;;;;;16.69;100.00;100968.69;5036012;28;20377;-83
2022/09/10 11:00:06;;;;;;;7.22;5.05;;;;;;;16.74;100.00;100976.88;5049838;28;20021;-85
2022/09/10 11:02:44;;;;;;;7.65;5.63;;;;;;;16.76;100.00;100981.97;5049749;28;20021;-85
2022/09/10 11:05:22;;;;;;;7.87;6.33;;;;;;;16.70;100.00;100986.03;5049808;28;20484;-86
2022/09/10 11:07:48;;;;;;;10.90;6.75;;;;;;;16.69;100.00;100989.63;5041114;28;20083;-85
2022/09/10 11:10:18;;;;;;;10.50;7.43;;;;;;;16.68;100.00;100978.31;5032451;28;20013;-82
2022/09/10 11:12:46;;;;;;;10.45;8.48;;;;;;;16.65;100.00;100986.50;5029718;28;20037;-85
2022/09/10 11:15:29;;;;;;;9.70;8.70;;;;;;;16.72;100.00;100986.72;5029355;28;20050;-84
2022/09/10 11:18:10;;;;;;;11.02;8.60;;;;;;;16.79;100.00;100998.19;5035200;28;20029;-85
2022/09/10 11:20:55;;;;;;;11.18;8.82;;;;;;;16.78;100.00;101003.59;5028630;28;20080;-86